Time;durP1;ratioP1;P1;durP2;ratioP2;P2;SDS_P1;SDS_P2;PMS_P1;PMS_P2;Temp;Humidity;BMP_temperature;BMP_pressure;BME280_temperature;BME280_humidity;BME280_pressure;Samples;Min_cycle;Max_cycle;Signal;HPM_P1;HPM_P2
2021/04/04 00:00:59;;;;;;;42.40;14.35;;;;;;;8.91;87.28;101840.97;4971116;28;20696;-75
2021/04/04 00:03:24;;;;;;;40.92;14.48;;;;;;;9.05;85.94;101841.63;4971877;28;20030;-75
2021/04/04 00:05:49;;;;;;;41.88;14.88;;;;;;;9.02;86.49;101834.19;4986820;28;20038;-74
2021/04/04 00:08:15;;;;;;;35.25;14.40;;;;;;;9.10;85.75;101832.63;4970240;28;20035;-75
2021/04/04 00:10:40;;;;;;;39.80;13.55;;;;;;;8.92;86.42;101836.41;4967645;28;20105;-75
2021/04/04 00:13:06;;;;;;;35.38;13.02;;;;;;;9.01;86.65;101838.00;4971370;28;20121;-75
2021/04/04 00:15:32;;;;;;;35.30;13.82;;;;;;;9.09;85.98;101837.22;4971067;28;20035;-73
2021/04/04 00:17:57;;;;;;;38.13;13.38;;;;;;;9.10;86.08;101833.41;4966387;28;20030;-74
2021/04/04 00:20:23;;;;;;;36.45;14.82;;;;;;;9.01;86.25;101835.31;4968286;28;20026;-75
2021/04/04 00:22:48;;;;;;;37.22;14.40;;;;;;;9.09;85.78;101839.09;4971466;28;20037;-75
2021/04/04 00:25:15;;;;;;;37.50;13.18;;;;;;;9.23;84.63;101833.59;4971604;28;20035;-75
2021/04/04 00:27:42;;;;;;;40.75;13.90;;;;;;;9.18;84.75;101821.09;4963236;28;20030;-74
2021/04/04 00:30:09;;;;;;;35.08;14.00;;;;;;;9.00;85.56;101822.97;4970993;28;20038;-75
2021/04/04 00:32:35;;;;;;;33.58;13.38;;;;;;;8.88;86.79;101824.72;4964885;28;20034;-74
2021/04/04 00:35:00;;;;;;;41.35;14.25;;;;;;;8.89;86.59;101818.22;4975124;28;20045;-75
2021/04/04 00:37:26;;;;;;;39.83;13.98;;;;;;;8.78;87.37;101823.13;4966224;28;20138;-75
2021/04/04 00:39:51;;;;;;;37.10;13.40;;;;;;;9.01;86.23;101823.78;4969462;28;20085;-75
2021/04/04 00:42:17;;;;;;;35.60;13.40;;;;;;;9.21;85.06;101819.66;4968435;28;20074;-75
2021/04/04 00:44:43;;;;;;;36.60;12.38;;;;;;;9.14;85.09;101820.13;4969560;28;20118;-75
2021/04/04 00:47:09;;;;;;;39.72;13.60;;;;;;;9.03;85.23;101818.88;4971180;28;20043;-76
2021/04/04 00:49:34;;;;;;;38.13;13.15;;;;;;;8.97;85.02;101815.56;4971752;28;20085;-75
2021/04/04 00:52:00;;;;;;;40.10;13.15;;;;;;;8.60;87.18;101815.31;4965430;28;20038;-74
2021/04/04 00:54:26;;;;;;;39.85;13.15;;;;;;;8.42;89.03;101814.47;4970312;28;20391;-75
2021/04/04 00:56:52;;;;;;;38.70;12.82;;;;;;;8.68;87.81;101815.34;4971661;28;20031;-75
2021/04/04 00:59:17;;;;;;;34.25;12.15;;;;;;;8.83;86.49;101808.72;4967802;28;20027;-75
2021/04/04 01:01:43;;;;;;;33.80;11.93;;;;;;;8.58;87.31;101806.78;4970404;28;20158;-75
2021/04/04 01:04:08;;;;;;;39.65;12.32;;;;;;;8.59;88.00;101803.81;4971618;28;20073;-75
2021/04/04 01:06:34;;;;;;;34.25;12.60;;;;;;;8.61;87.51;101800.81;4980483;28;20396;-75
2021/04/04 01:09:00;;;;;;;31.05;11.30;;;;;;;8.42;87.88;101800.28;4967225;28;20086;-74
2021/04/04 01:11:45;;;;;;;33.70;11.52;;;;;;;8.33;88.72;101799.44;4970916;28;20122;-74
2021/04/04 01:14:20;;;;;;;35.35;12.60;;;;;;;8.33;88.47;101799.44;4970405;28;20113;-75
2021/04/04 01:16:49;;;;;;;33.95;12.43;;;;;;;8.13;88.43;101800.75;4971634;28;20027;-75
2021/04/04 01:19:45;;;;;;;40.03;11.75;;;;;;;7.87;90.04;101789.13;4966595;28;20614;-75
2021/04/04 01:22:26;;;;;;;32.33;10.93;;;;;;;7.90;90.79;101793.88;4970854;28;20049;-76
2021/04/04 01:25:14;;;;;;;27.58;9.73;;;;;;;7.83;90.55;101791.66;4971633;28;20042;-74
2021/04/04 01:27:52;;;;;;;33.78;10.20;;;;;;;7.90;90.84;101799.25;4973827;28;20038;-75
2021/04/04 01:30:19;;;;;;;30.63;9.65;;;;;;;7.63;91.73;101786.00;4970340;28;20147;-74
2021/04/04 01:32:48;;;;;;;31.67;9.52;;;;;;;7.89;91.05;101789.63;4978445;28;20035;-76
2021/04/04 01:35:17;;;;;;;33.25;10.50;;;;;;;8.05;89.94;101790.81;4975432;28;20063;-74
2021/04/04 01:37:45;;;;;;;23.27;8.68;;;;;;;8.05;89.93;101793.50;4971338;28;20031;-75
2021/04/04 01:40:15;;;;;;;28.95;8.95;;;;;;;8.32;89.03;101793.31;4974399;28;20035;-75
2021/04/04 01:42:42;;;;;;;33.35;9.20;;;;;;;8.14;89.58;101786.25;4972211;28;20035;-75
2021/04/04 01:45:09;;;;;;;34.70;8.85;;;;;;;8.17;89.22;101782.94;4973607;28;20109;-75
2021/04/04 01:47:36;;;;;;;22.58;8.50;;;;;;;8.20;89.63;101785.03;4978009;28;20085;-75
2021/04/04 01:50:04;;;;;;;18.85;8.43;;;;;;;8.32;88.65;101787.94;4973745;28;20500;-75
2021/04/04 01:52:31;;;;;;;28.02;8.50;;;;;;;8.24;89.27;101777.94;4982367;28;20026;-75
2021/04/04 01:54:58;;;;;;;34.15;10.00;;;;;;;7.91;90.78;101774.81;4974749;28;20101;-75
2021/04/04 01:57:27;;;;;;;26.15;8.95;;;;;;;7.69;92.04;101780.22;4973982;28;20074;-75
2021/04/04 01:59:53;;;;;;;25.58;8.45;;;;;;;7.87;91.89;101771.16;4969871;28;20109;-75
2021/04/04 02:02:19;;;;;;;29.75;8.82;;;;;;;7.86;91.33;101776.81;4968666;28;20081;-76
2021/04/04 02:04:44;;;;;;;28.55;8.43;;;;;;;8.29;88.81;101769.75;4987009;28;20066;-75
2021/04/04 02:07:14;;;;;;;30.30;9.60;;;;;;;7.98;89.34;101771.66;4974014;28;20041;-75
2021/04/04 02:09:40;;;;;;;25.40;8.98;;;;;;;7.88;90.91;101755.84;4970619;28;20560;-75
2021/04/04 02:12:07;;;;;;;31.88;8.73;;;;;;;8.04;90.08;101759.72;4974272;28;20033;-75
2021/04/04 02:14:34;;;;;;;34.33;8.57;;;;;;;7.93;89.86;101761.09;4970808;28;20567;-75
2021/04/04 02:17:00;;;;;;;28.88;9.30;;;;;;;8.01;90.50;101758.44;4975771;28;20061;-75
2021/04/04 02:19:27;;;;;;;26.77;8.13;;;;;;;8.03;89.98;101760.81;4976905;28;20029;-75
2021/04/04 02:21:56;;;;;;;32.63;8.18;;;;;;;8.05;89.93;101753.25;4973217;28;20034;-75
2021/04/04 02:24:24;;;;;;;26.58;8.98;;;;;;;8.11;89.31;101757.34;4971066;28;20556;-75
2021/04/04 02:26:51;;;;;;;23.35;8.32;;;;;;;8.18;88.71;101757.72;4973876;28;20038;-74
2021/04/04 02:29:17;;;;;;;28.30;8.98;;;;;;;8.05;89.35;101761.31;4973791;28;20035;-74
2021/04/04 02:32:03;;;;;;;28.30;10.10;;;;;;;8.08;89.95;101760.69;4968182;28;20031;-75
2021/04/04 02:34:34;;;;;;;31.05;8.60;;;;;;;8.16;89.85;101758.03;4969335;28;20035;-76
2021/04/04 02:37:10;;;;;;;25.65;8.13;;;;;;;8.21;89.92;101759.75;4973361;28;20035;-74
2021/04/04 02:39:45;;;;;;;24.38;7.57;;;;;;;8.32;88.90;101749.59;4973528;28;20035;-74
2021/04/04 02:42:11;;;;;;;24.88;7.47;;;;;;;8.23;88.85;101757.56;4969971;28;20031;-75
2021/04/04 02:44:38;;;;;;;25.88;7.00;;;;;;;8.27;88.67;101750.50;4988198;28;20495;-76
2021/04/04 02:47:10;;;;;;;24.45;6.63;;;;;;;8.31;88.04;101751.47;4967529;28;20407;-75
2021/04/04 02:49:37;;;;;;;17.42;6.82;;;;;;;8.21;88.35;101749.03;4970635;28;20035;-75
2021/04/04 02:52:09;;;;;;;23.52;7.32;;;;;;;8.20;88.70;101744.78;4969578;28;20035;-75
2021/04/04 02:54:37;;;;;;;20.27;6.97;;;;;;;8.19;89.05;101745.88;4968862;28;20030;-75
2021/04/04 02:57:04;;;;;;;17.63;6.65;;;;;;;8.33;87.76;101748.47;4973014;28;20042;-75
2021/04/04 02:59:43;;;;;;;26.58;7.07;;;;;;;8.38;87.62;101746.41;4968146;28;20051;-75
2021/04/04 03:02:12;;;;;;;23.52;7.15;;;;;;;8.33;87.24;101748.47;4972984;28;20035;-74
2021/04/04 03:04:40;;;;;;;24.90;6.90;;;;;;;8.33;86.95;101741.22;4973632;28;20612;-75
2021/04/04 03:07:06;;;;;;;25.63;6.72;;;;;;;8.27;87.50;101744.34;4972763;28;20510;-76
2021/04/04 03:09:33;;;;;;;26.35;6.45;;;;;;;8.37;86.92;101736.00;4970326;28;20045;-74
2021/04/04 03:12:00;;;;;;;16.38;5.65;;;;;;;8.30;87.31;101728.44;4972463;28;20042;-75
2021/04/04 03:14:26;;;;;;;20.63;6.85;;;;;;;8.17;87.91;101726.59;4971475;28;20110;-74
2021/04/04 03:16:54;;;;;;;25.13;7.43;;;;;;;8.31;87.16;101721.94;4973307;28;20062;-75
2021/04/04 03:19:21;;;;;;;34.20;7.32;;;;;;;8.27;87.12;101726.34;4963064;28;20061;-75
2021/04/04 03:21:48;;;;;;;22.08;6.97;;;;;;;8.19;87.72;101724.41;4967389;28;20479;-74
2021/04/04 03:24:16;;;;;;;26.98;7.88;;;;;;;8.01;87.96;101722.78;4969676;28;20038;-74
2021/04/04 03:26:43;;;;;;;22.38;8.77;;;;;;;8.08;87.68;101720.44;4969644;28;20034;-75
2021/04/04 03:29:10;;;;;;;25.00;7.78;;;;;;;8.13;87.25;101712.22;4968891;28;20097;-74
2021/04/04 03:31:37;;;;;;;20.80;7.38;;;;;;;7.97;87.55;101706.53;4968147;28;20034;-75
2021/04/04 03:34:03;;;;;;;25.48;8.10;;;;;;;8.04;87.53;101706.06;4967458;28;20050;-74
2021/04/04 03:36:30;;;;;;;26.65;7.90;;;;;;;8.03;87.42;101707.19;4961944;28;20027;-73
2021/04/04 03:38:56;;;;;;;21.92;8.05;;;;;;;8.08;87.50;101701.66;4971209;28;20038;-75
2021/04/04 03:41:25;;;;;;;25.25;7.72;;;;;;;8.08;87.26;101693.63;4972116;28;20035;-75
2021/04/04 03:43:52;;;;;;;22.77;7.18;;;;;;;7.98;87.49;101696.56;4969924;28;20039;-74
2021/04/04 03:46:25;;;;;;;27.60;7.80;;;;;;;7.94;87.52;101687.56;4971981;28;20046;-74
2021/04/04 03:48:53;;;;;;;21.48;7.47;;;;;;;7.87;87.21;101698.78;4982885;28;20134;-75
2021/04/04 03:51:23;;;;;;;23.55;7.65;;;;;;;7.82;87.65;101690.84;4965503;28;20408;-74
2021/04/04 03:53:50;;;;;;;19.75;7.78;;;;;;;7.87;87.61;101685.38;4985786;28;20081;-75
2021/04/04 03:56:21;;;;;;;20.88;6.80;;;;;;;7.87;87.23;101684.56;4969699;28;20034;-75
2021/04/04 03:58:47;;;;;;;26.33;7.55;;;;;;;7.77;87.91;101684.84;4969544;28;20035;-75
2021/04/04 04:01:18;;;;;;;20.65;6.93;;;;;;;7.55;88.32;101683.00;4987177;28;20058;-75
2021/04/04 04:03:44;;;;;;;25.17;7.00;;;;;;;7.49;88.81;101694.19;4971664;28;20042;-74
2021/04/04 04:06:12;;;;;;;27.25;7.32;;;;;;;7.45;89.39;101688.66;4971762;28;20286;-75
2021/04/04 04:08:39;;;;;;;29.75;7.40;;;;;;;7.31;89.49;101679.91;4969160;28;20059;-75
2021/04/04 04:11:05;;;;;;;23.08;7.28;;;;;;;7.47;88.41;101677.63;4972207;28;20045;-74
2021/04/04 04:13:34;;;;;;;23.90;7.35;;;;;;;7.29;89.65;101684.78;4971475;28;20138;-75
2021/04/04 04:15:59;;;;;;;26.73;8.18;;;;;;;7.34;89.49;101678.50;4970465;28;20041;-74
2021/04/04 04:18:25;;;;;;;24.08;7.65;;;;;;;7.38;89.73;101677.56;4971460;28;20039;-75
2021/04/04 04:20:51;;;;;;;23.35;7.32;;;;;;;7.26;89.54;101672.78;4970790;28;20043;-75
2021/04/04 04:23:17;;;;;;;23.05;7.05;;;;;;;7.34;89.48;101673.94;4971128;28;20038;-75
2021/04/04 04:25:45;;;;;;;24.23;7.03;;;;;;;7.41;89.17;101679.66;4968894;28;20035;-75
2021/04/04 04:28:11;;;;;;;30.67;7.90;;;;;;;7.30;89.05;101676.44;4966486;28;20027;-75
2021/04/04 04:30:38;;;;;;;27.23;7.90;;;;;;;7.07;90.91;101677.56;4970818;28;20476;-76
2021/04/04 04:33:06;;;;;;;22.25;7.13;;;;;;;7.03;90.87;101676.59;4970685;28;20478;-76
2021/04/04 04:35:32;;;;;;;23.70;7.18;;;;;;;7.17;90.58;101680.00;4970803;28;20070;-76
2021/04/04 04:37:59;;;;;;;20.33;7.18;;;;;;;7.25;90.86;101683.81;4970541;28;20042;-76
2021/04/04 04:40:26;;;;;;;26.90;7.82;;;;;;;7.25;90.38;101673.09;4970624;28;20420;-76
2021/04/04 04:42:54;;;;;;;26.50;7.88;;;;;;;7.29;90.91;101668.72;4964554;28;20035;-76
2021/04/04 04:45:27;;;;;;;28.10;8.60;;;;;;;7.29;91.26;101671.38;4983383;28;20122;-74
2021/04/04 04:47:53;;;;;;;23.38;7.28;;;;;;;7.36;91.41;101666.38;4984865;28;20034;-76
2021/04/04 04:50:20;;;;;;;28.17;7.95;;;;;;;7.62;89.42;101666.50;4971403;28;20035;-76
2021/04/04 04:52:46;;;;;;;26.02;7.75;;;;;;;7.53;89.41;101657.63;4985730;28;20118;-76
2021/04/04 04:55:12;;;;;;;23.05;8.32;;;;;;;7.48;90.09;101655.88;4969904;28;20590;-76
2021/04/04 04:57:39;;;;;;;30.27;8.07;;;;;;;7.48;90.22;101655.06;4969835;28;20031;-76
2021/04/04 05:00:09;;;;;;;22.10;8.15;;;;;;;7.68;88.87;101659.91;4970995;28;20035;-75
2021/04/04 05:02:36;;;;;;;33.63;8.25;;;;;;;7.69;89.04;101656.09;4970074;28;20105;-76
2021/04/04 05:05:04;;;;;;;29.83;7.50;;;;;;;7.52;89.58;101654.16;4984582;28;20035;-75
2021/04/04 05:07:35;;;;;;;26.42;6.60;;;;;;;7.58;89.26;101646.78;4970036;28;20045;-74
2021/04/04 05:10:07;;;;;;;24.92;7.25;;;;;;;7.37;90.93;101656.44;4969355;28;20089;-76
2021/04/04 05:12:35;;;;;;;23.85;6.70;;;;;;;7.51;89.66;101654.47;4970000;28;20026;-75
2021/04/04 05:15:03;;;;;;;25.50;7.45;;;;;;;7.54;89.90;101646.59;4968517;28;20479;-76
2021/04/04 05:17:35;;;;;;;24.52;6.65;;;;;;;7.53;89.53;101647.69;4969851;28;20085;-76
2021/04/04 05:20:03;;;;;;;19.05;6.32;;;;;;;7.53;89.50;101638.88;4970558;28;20456;-76
2021/04/04 05:22:29;;;;;;;22.33;5.90;;;;;;;7.53;89.50;101646.91;4985470;28;20117;-76
2021/04/04 05:24:57;;;;;;;21.50;7.13;;;;;;;7.56;89.52;101647.09;4971352;28;20422;-76
2021/04/04 05:27:22;;;;;;;21.63;6.22;;;;;;;7.56;89.06;101651.66;4969835;28;20098;-75
2021/04/04 05:29:48;;;;;;;25.33;5.18;;;;;;;7.54;89.38;101638.56;4971017;28;20056;-77
2021/04/04 05:32:14;;;;;;;25.23;5.50;;;;;;;7.70;88.73;101630.91;4970071;28;20066;-76
2021/04/04 05:34:40;;;;;;;22.70;5.55;;;;;;;7.69;87.96;101635.47;4970721;28;20059;-76
2021/04/04 05:37:08;;;;;;;15.20;5.25;;;;;;;7.84;87.21;101631.56;4970256;28;20373;-76
2021/04/04 05:39:36;;;;;;;17.10;5.15;;;;;;;7.57;88.53;101631.81;4970370;28;20047;-76
2021/04/04 05:42:04;;;;;;;23.77;5.25;;;;;;;7.82;87.17;101631.09;4971169;28;20031;-76
2021/04/04 05:44:36;;;;;;;24.95;5.80;;;;;;;7.85;86.68;101636.63;4970992;28;20117;-76
2021/04/04 05:47:24;;;;;;;17.42;5.78;;;;;;;7.91;86.25;101632.69;4964993;28;20086;-76
2021/04/04 05:50:08;;;;;;;24.73;5.80;;;;;;;7.91;85.30;101627.31;4955768;28;20043;-77
2021/04/04 05:52:42;;;;;;;20.80;5.82;;;;;;;7.88;85.76;101630.63;4981111;28;20468;-77
2021/04/04 05:55:16;;;;;;;18.58;5.15;;;;;;;7.91;85.36;101643.41;4970510;28;20122;-75
2021/04/04 05:57:55;;;;;;;27.42;6.82;;;;;;;7.85;86.00;101641.19;4969797;28;20468;-77
2021/04/04 06:00:24;;;;;;;21.38;5.32;;;;;;;7.96;85.75;101645.16;4968638;28;20039;-75
2021/04/04 06:03:21;;;;;;;18.13;5.88;;;;;;;7.93;85.31;101646.56;4958694;28;20090;-75
2021/04/04 06:06:02;;;;;;;17.73;5.00;;;;;;;7.90;84.62;101643.72;4965967;28;20122;-76
2021/04/04 06:09:05;;;;;;;24.90;5.43;;;;;;;8.04;84.45;101647.06;4969580;28;20373;-77
2021/04/04 06:12:02;;;;;;;14.65;4.55;;;;;;;8.00;84.09;101638.06;4966011;28;20518;-76
2021/04/04 06:14:39;;;;;;;17.00;4.88;;;;;;;8.05;84.00;101640.59;4968971;28;20380;-76
2021/04/04 06:17:25;;;;;;;18.60;5.55;;;;;;;7.99;84.82;101634.56;4973508;28;20047;-76
2021/04/04 06:20:35;;;;;;;17.60;4.90;;;;;;;8.04;84.42;101636.31;4966712;28;20035;-76
2021/04/04 06:23:28;;;;;;;18.67;5.13;;;;;;;8.20;83.26;101624.06;4962643;28;20050;-76
2021/04/04 06:25:53;;;;;;;10.77;3.97;;;;;;;8.29;82.67;101621.38;4967802;28;20118;-76
2021/04/04 06:28:25;;;;;;;22.92;4.43;;;;;;;8.17;83.08;101628.16;4972769;28;20062;-77
2021/04/04 06:31:02;;;;;;;14.68;4.18;;;;;;;8.24;82.55;101616.97;4973527;28;20549;-76
2021/04/04 06:33:33;;;;;;;16.02;3.78;;;;;;;8.29;81.99;101624.06;4969807;28;20447;-76
2021/04/04 06:36:05;;;;;;;14.32;3.60;;;;;;;8.03;83.16;101624.81;4970807;28;20043;-75
2021/04/04 06:39:19;;;;;;;11.10;3.63;;;;;;;8.08;83.53;101622.00;4971917;28;20476;-77
2021/04/04 06:41:53;;;;;;;18.63;4.32;;;;;;;8.17;83.00;101616.63;4966136;28;20027;-74
2021/04/04 06:44:37;;;;;;;11.52;3.58;;;;;;;8.46;81.47;101621.41;4969992;28;20113;-77
2021/04/04 06:47:07;;;;;;;13.73;3.20;;;;;;;8.39;81.02;101621.88;4972384;28;20042;-73
2021/04/04 06:50:05;;;;;;;13.77;3.45;;;;;;;8.46;80.46;101616.06;4972343;28;20101;-77
2021/04/04 06:53:01;;;;;;;17.15;2.97;;;;;;;8.47;79.53;101618.41;4936854;28;20042;-76
2021/04/04 06:55:43;;;;;;;8.27;2.67;;;;;;;8.51;78.39;101616.69;4966692;28;20741;-77
2021/04/04 06:58:42;;;;;;;13.50;3.05;;;;;;;8.48;79.08;101619.22;4986854;28;20031;-76
2021/04/04 07:01:08;;;;;;;12.25;3.35;;;;;;;8.53;78.99;101611.78;4970055;28;20061;-76
2021/04/04 07:03:55;;;;;;;16.27;3.20;;;;;;;8.67;78.53;101611.59;4973410;28;20070;-76
2021/04/04 07:06:27;;;;;;;10.23;2.83;;;;;;;8.64;78.30;101615.72;4968835;28;20066;-75
2021/04/04 07:08:52;;;;;;;;;;;;;;;8.53;78.82;101606.41;4973210;28;20113;-75
2021/04/04 07:12:19;;;;;;;12.57;3.42;;;;;;;8.70;77.93;101601.03;4973146;28;20017;-76
2021/04/04 07:15:03;;;;;;;13.73;3.55;;;;;;;8.72;77.81;101598.00;4928607;28;20424;-75
2021/04/04 07:18:01;;;;;;;12.85;3.08;;;;;;;8.63;78.45;101600.69;4971213;28;20542;-75
2021/04/04 07:21:00;;;;;;;15.13;3.40;;;;;;;8.72;78.05;101598.81;4971755;28;20050;-75
2021/04/04 07:23:51;;;;;;;13.23;3.72;;;;;;;8.85;77.62;101591.66;4973297;28;20030;-75
2021/04/04 07:26:17;;;;;;;12.02;3.13;;;;;;;8.72;77.52;101598.00;4976194;28;20053;-76
2021/04/04 07:29:24;;;;;;;12.27;3.45;;;;;;;8.75;77.48;101598.16;4972337;28;20061;-76
2021/04/04 07:32:01;;;;;;;17.48;3.67;;;;;;;8.70;78.17;101601.03;4943010;28;20421;-75
2021/04/04 07:34:40;;;;;;;13.35;3.75;;;;;;;8.80;78.13;101594.53;4970498;28;20118;-75
2021/04/04 07:37:50;;;;;;;19.70;3.90;;;;;;;8.78;77.52;101597.53;4969571;28;20514;-75
2021/04/04 07:40:25;;;;;;;21.52;3.95;;;;;;;8.70;78.02;101595.66;4972357;28;20073;-75
2021/04/04 07:43:03;;;;;;;9.75;3.67;;;;;;;8.90;76.64;101594.97;4970347;28;20030;-75
2021/04/04 07:45:37;;;;;;;14.57;4.05;;;;;;;8.84;76.79;101595.47;4971288;28;21482;-75
2021/04/04 07:48:12;;;;;;;17.88;3.97;;;;;;;8.78;77.22;101596.75;4969511;28;20089;-75
2021/04/04 07:50:46;;;;;;;14.60;3.75;;;;;;;8.75;77.89;101598.16;4965794;28;20508;-76
2021/04/04 07:53:23;;;;;;;13.48;3.65;;;;;;;8.85;77.85;101597.81;4971574;28;20031;-75
2021/04/04 07:56:00;;;;;;;14.07;3.50;;;;;;;8.81;78.60;101601.47;4969237;28;20030;-75
2021/04/04 07:58:54;;;;;;;11.13;3.97;;;;;;;8.94;79.03;101605.88;4969228;28;20109;-76
2021/04/04 08:01:24;;;;;;;18.65;3.33;;;;;;;8.87;80.21;101603.66;4967162;28;20027;-76
2021/04/04 08:04:08;;;;;;;11.43;3.20;;;;;;;8.97;80.16;101599.84;4971779;28;20491;-75
2021/04/04 08:06:45;;;;;;;15.27;3.80;;;;;;;8.86;80.45;101596.72;4964930;28;20046;-75
2021/04/04 08:09:26;;;;;;;10.70;3.60;;;;;;;8.97;80.40;101594.47;4969498;28;20154;-76
2021/04/04 08:12:07;;;;;;;18.70;3.75;;;;;;;8.96;80.86;101603.66;4967274;28;20056;-75
2021/04/04 08:14:44;;;;;;;12.90;4.10;;;;;;;8.96;81.40;101609.03;4970398;28;20026;-75
2021/04/04 08:17:10;;;;;;;15.15;4.65;;;;;;;8.93;82.38;101602.41;4969657;28;20030;-75
2021/04/04 08:19:38;;;;;;;20.05;5.85;;;;;;;8.91;83.15;101599.25;4984934;28;20096;-75
2021/04/04 08:22:08;;;;;;;16.17;6.00;;;;;;;8.94;83.93;101595.91;4971957;28;20035;-75
2021/04/04 08:24:33;;;;;;;15.75;5.47;;;;;;;8.98;84.49;101604.91;4971577;28;20031;-75
2021/04/04 08:27:27;;;;;;;13.90;5.85;;;;;;;8.94;85.28;101608.56;4969558;28;20042;-76
2021/04/04 08:29:59;;;;;;;15.00;6.30;;;;;;;8.91;85.68;101615.34;4965254;28;20053;-76
2021/04/04 08:32:34;;;;;;;15.05;5.90;;;;;;;8.95;85.85;101608.22;4961491;28;20043;-74
2021/04/04 08:35:00;;;;;;;17.42;5.97;;;;;;;9.15;86.39;101611.34;4969355;28;21031;-74
2021/04/04 08:37:34;;;;;;;16.00;5.90;;;;;;;8.91;87.57;101615.34;4967934;28;20031;-74
2021/04/04 08:40:07;;;;;;;23.80;7.38;;;;;;;8.88;89.77;101610.59;4967140;28;20038;-74
2021/04/04 08:42:35;;;;;;;17.48;6.65;;;;;;;8.88;89.95;101607.16;4969933;28;20031;-74
2021/04/04 08:45:15;;;;;;;21.40;7.32;;;;;;;8.87;90.77;101611.72;4971213;28;20145;-73
2021/04/04 08:47:44;;;;;;;16.85;6.50;;;;;;;8.89;90.93;101604.13;4969581;28;20027;-74
2021/04/04 08:50:16;;;;;;;18.58;7.13;;;;;;;8.98;90.34;101610.28;4969992;28;20070;-73
2021/04/04 08:53:22;;;;;;;20.83;6.78;;;;;;;9.01;89.95;101606.97;4964308;28;20638;-75
2021/04/04 08:55:48;;;;;;;15.43;6.60;;;;;;;8.93;90.28;101602.41;4964354;28;20070;-73
2021/04/04 08:58:24;;;;;;;18.75;6.30;;;;;;;8.89;89.22;101603.34;4981087;28;20070;-73
2021/04/04 09:00:56;;;;;;;18.23;6.13;;;;;;;8.89;88.43;101588.03;4970348;28;20043;-74
2021/04/04 09:03:24;;;;;;;22.52;6.65;;;;;;;9.03;87.86;101599.38;4967235;28;20121;-74
2021/04/04 09:06:00;;;;;;;16.75;6.18;;;;;;;8.98;88.66;101601.44;4972036;28;20046;-73
2021/04/04 09:08:26;;;;;;;24.02;6.28;;;;;;;8.96;88.93;101595.59;4985188;28;20105;-74
2021/04/04 09:10:52;;;;;;;14.50;5.70;;;;;;;9.05;87.96;101594.47;4968749;28;20030;-74
2021/04/04 09:13:18;;;;;;;19.92;5.35;;;;;;;9.03;86.63;101585.94;4971434;28;20101;-74
2021/04/04 09:15:48;;;;;;;20.23;5.68;;;;;;;8.97;87.56;101587.22;4971625;28;20039;-74
2021/04/04 09:18:15;;;;;;;13.52;5.30;;;;;;;8.96;87.78;101593.69;4970595;28;20031;-74
2021/04/04 09:20:44;;;;;;;16.50;5.88;;;;;;;9.01;87.11;101596.22;4967702;28;20042;-74
2021/04/04 09:23:12;;;;;;;17.73;6.00;;;;;;;8.99;88.29;101587.69;4976446;28;20031;-74
2021/04/04 09:25:48;;;;;;;20.88;6.35;;;;;;;9.00;88.57;101583.88;4970873;28;20523;-74
2021/04/04 09:28:15;;;;;;;16.25;5.97;;;;;;;8.98;89.11;101583.41;4967774;28;20038;-74
2021/04/04 09:30:44;;;;;;;17.33;5.43;;;;;;;8.96;89.53;101577.56;4971412;28;20087;-73
2021/04/04 09:33:13;;;;;;;14.60;6.22;;;;;;;9.04;89.27;101579.44;4969788;28;20031;-74
2021/04/04 09:35:41;;;;;;;19.30;6.13;;;;;;;9.13;88.93;101575.94;4964763;28;20034;-74
2021/04/04 09:38:18;;;;;;;19.08;5.65;;;;;;;9.15;88.33;101569.16;4969030;28;20034;-74
2021/04/04 09:40:45;;;;;;;16.58;5.85;;;;;;;9.09;88.11;101571.22;4968289;28;20447;-74
2021/04/04 09:43:17;;;;;;;12.75;5.38;;;;;;;9.17;88.23;101574.19;4966159;28;20038;-75
2021/04/04 09:45:42;;;;;;;15.73;5.30;;;;;;;9.21;87.98;101567.06;4963214;28;20515;-74
2021/04/04 09:48:25;;;;;;;17.15;5.88;;;;;;;9.24;88.04;101566.41;4972386;28;20027;-74
2021/04/04 09:51:12;;;;;;;12.88;5.45;;;;;;;9.29;88.15;101571.63;4972186;28;20038;-74
2021/04/04 09:53:40;;;;;;;12.93;5.32;;;;;;;9.34;87.26;101561.47;4956288;28;20042;-75
2021/04/04 09:56:12;;;;;;;11.75;5.32;;;;;;;9.29;86.91;101563.56;4966014;28;20106;-75
2021/04/04 09:58:42;;;;;;;14.00;4.78;;;;;;;9.35;85.54;101562.25;4973529;28;20027;-75
2021/04/04 10:01:26;;;;;;;14.07;4.67;;;;;;;9.22;85.92;101547.13;4983956;28;20035;-74
2021/04/04 10:04:04;;;;;;;10.63;4.15;;;;;;;9.29;85.97;101550.88;4962584;28;20035;-74
2021/04/04 10:06:32;;;;;;;11.88;4.60;;;;;;;9.29;86.27;101552.81;4960646;28;20038;-74
2021/04/04 10:09:02;;;;;;;12.75;4.43;;;;;;;9.30;85.76;101546.31;4962914;28;20041;-75
2021/04/04 10:11:28;;;;;;;12.80;4.25;;;;;;;9.30;85.93;101544.41;4961000;28;20093;-74
2021/04/04 10:14:13;;;;;;;11.25;4.63;;;;;;;9.34;84.58;101534.59;4963698;28;20042;-74
2021/04/04 10:16:39;;;;;;;16.48;4.90;;;;;;;9.44;84.01;101531.53;4969856;28;20038;-75
2021/04/04 10:19:07;;;;;;;10.73;5.07;;;;;;;9.47;83.87;101533.56;4953581;28;20046;-74
2021/04/04 10:21:41;;;;;;;15.82;5.03;;;;;;;9.57;83.33;101535.09;4965560;28;20104;-74
2021/04/04 10:24:27;;;;;;;12.60;5.30;;;;;;;9.42;83.60;101525.69;4964544;28;20041;-74
2021/04/04 10:27:28;;;;;;;10.38;4.65;;;;;;;9.47;83.83;101527.38;4962132;28;20042;-74
2021/04/04 10:30:13;;;;;;;13.38;4.80;;;;;;;9.50;83.38;101521.38;4965229;28;20097;-74
2021/04/04 10:32:42;;;;;;;10.38;4.78;;;;;;;9.65;82.76;101518.13;4967758;28;20026;-73
2021/04/04 10:35:10;;;;;;;10.93;4.50;;;;;;;9.68;82.50;101509.38;4964486;28;20038;-74
2021/04/04 10:37:36;;;;;;;12.77;4.40;;;;;;;9.64;82.79;101513.88;4960736;28;20478;-74
2021/04/04 10:40:02;;;;;;;9.75;4.22;;;;;;;9.75;82.68;101507.78;4965364;28;20049;-74
2021/04/04 10:42:27;;;;;;;7.35;3.58;;;;;;;9.82;81.73;101507.22;4964278;28;20042;-76
2021/04/04 10:45:09;;;;;;;16.17;4.90;;;;;;;9.82;81.03;101499.94;4961108;28;20042;-74
2021/04/04 10:47:35;;;;;;;10.35;4.20;;;;;;;9.92;81.18;101502.25;4962875;28;20043;-73
2021/04/04 10:50:09;;;;;;;13.02;5.20;;;;;;;9.95;79.94;101506.16;4964942;28;20522;-74
2021/04/04 10:52:37;;;;;;;14.65;5.10;;;;;;;9.83;79.75;101496.13;4972107;28;20498;-73
2021/04/04 10:55:04;;;;;;;11.48;4.25;;;;;;;9.88;78.80;101495.16;4973121;28;20069;-73
2021/04/04 10:57:31;;;;;;;13.30;4.35;;;;;;;9.81;78.56;101484.16;4969493;28;20463;-74
2021/04/04 10:59:57;;;;;;;18.40;4.22;;;;;;;9.91;78.95;101483.75;4971223;28;20043;-74
2021/04/04 11:02:24;;;;;;;10.50;4.00;;;;;;;9.89;78.73;101480.59;4972290;28;20568;-74
2021/04/04 11:04:50;;;;;;;10.57;3.67;;;;;;;9.96;78.35;101475.47;4986810;28;20041;-74
2021/04/04 11:07:19;;;;;;;7.95;3.50;;;;;;;9.75;79.40;101480.88;4972331;28;20031;-75
2021/04/04 11:09:46;;;;;;;7.97;3.38;;;;;;;9.93;78.53;101476.13;4973115;28;20023;-74
2021/04/04 11:12:14;;;;;;;11.02;4.00;;;;;;;9.82;78.94;101483.03;4971001;28;20035;-74
2021/04/04 11:14:42;;;;;;;11.48;4.00;;;;;;;9.85;79.31;101485.06;4973905;28;20026;-74
2021/04/04 11:17:12;;;;;;;12.73;4.18;;;;;;;9.91;78.86;101467.63;4973155;28;20035;-74
2021/04/04 11:19:47;;;;;;;14.27;4.00;;;;;;;9.88;79.59;101462.88;4971336;28;20039;-73
2021/04/04 11:22:17;;;;;;;7.78;3.58;;;;;;;9.95;79.46;101458.53;4988695;28;20041;-74
2021/04/04 11:25:09;;;;;;;9.48;3.15;;;;;;;9.80;80.19;101458.34;4973219;28;20097;-75
2021/04/04 11:27:40;;;;;;;10.95;2.85;;;;;;;9.92;80.39;101459.22;4961694;28;20092;-74
2021/04/04 11:30:07;;;;;;;12.98;3.38;;;;;;;9.99;79.05;101453.28;4973067;28;20081;-74
2021/04/04 11:32:33;;;;;;;9.35;2.70;;;;;;;10.20;78.04;101454.03;4971298;28;20043;-73
2021/04/04 11:35:01;;;;;;;7.63;2.63;;;;;;;10.35;76.70;101441.88;4963708;28;20368;-74
2021/04/04 11:37:27;;;;;;;8.80;2.38;;;;;;;10.41;74.87;101438.66;4963353;28;20057;-75
2021/04/04 11:40:11;;;;;;;7.30;2.38;;;;;;;10.43;74.49;101441.00;4971954;28;20050;-74
2021/04/04 11:42:36;;;;;;;9.23;2.63;;;;;;;10.34;74.55;101446.47;4971816;28;20035;-74
2021/04/04 11:45:02;;;;;;;9.07;2.92;;;;;;;10.47;73.86;101444.59;4973075;28;20030;-73
2021/04/04 11:47:28;;;;;;;11.05;3.08;;;;;;;10.42;73.39;101424.06;4972321;28;20050;-74